Time;durP1;ratioP1;P1;durP2;ratioP2;P2;SDS_P1;SDS_P2;PMS_P1;PMS_P2;Temp;Humidity;BMP_temperature;BMP_pressure;BME280_temperature;BME280_humidity;BME280_pressure;Samples;Min_cycle;Max_cycle;Signal;HPM_P1;HPM_P2
2021/08/03 00:00:03;;;;;;;1.10;1.00;;;24.70;48.90;;;;;;5047379;28;20445;-78
2021/08/03 00:02:32;;;;;;;1.20;1.10;;;24.60;48.80;;;;;;5047064;28;20545;-82
2021/08/03 00:05:00;;;;;;;1.00;1.00;;;24.60;48.80;;;;;;5056831;28;20484;-83
2021/08/03 00:07:28;;;;;;;3.17;1.40;;;24.60;48.80;;;;;;5067569;28;20440;-83
2021/08/03 00:09:57;;;;;;;1.10;1.10;;;24.60;48.70;;;;;;5067335;28;20473;-83
2021/08/03 00:12:25;;;;;;;0.80;0.80;;;24.60;48.80;;;;;;5066673;28;20483;-83
2021/08/03 00:14:53;;;;;;;4.03;0.90;;;24.60;48.70;;;;;;5067523;28;20428;-83
2021/08/03 00:17:22;;;;;;;1.10;1.00;;;24.60;48.70;;;;;;5066157;28;20448;-82
2021/08/03 00:19:52;;;;;;;0.90;0.90;;;24.50;48.60;;;;;;5056005;28;20445;-82
2021/08/03 00:22:22;;;;;;;1.10;0.97;;;24.50;48.70;;;;;;5066792;28;20430;-82
2021/08/03 00:24:50;;;;;;;1.03;0.90;;;24.50;48.60;;;;;;5053853;28;20473;-83
2021/08/03 00:27:18;;;;;;;2.17;0.90;;;24.50;48.60;;;;;;5047344;28;20428;-83
2021/08/03 00:29:46;;;;;;;1.00;1.00;;;24.50;48.60;;;;;;5047294;28;20608;-83
2021/08/03 00:32:14;;;;;;;1.20;0.90;;;24.50;48.50;;;;;;5046851;28;20453;-83
2021/08/03 00:34:42;;;;;;;1.77;1.00;;;24.40;48.60;;;;;;5046889;28;20497;-83
2021/08/03 00:37:11;;;;;;;1.30;1.20;;;24.40;48.50;;;;;;5047210;28;20454;-83
2021/08/03 00:39:39;;;;;;;0.80;0.80;;;24.40;48.50;;;;;;5046878;28;20514;-83
2021/08/03 00:42:07;;;;;;;1.00;0.90;;;24.40;48.50;;;;;;5046668;28;20439;-82
2021/08/03 00:44:42;;;;;;;1.00;1.00;;;24.40;48.50;;;;;;5046485;28;20433;-83
2021/08/03 00:47:10;;;;;;;1.00;1.00;;;24.40;48.50;;;;;;5046885;28;20446;-82
2021/08/03 00:49:38;;;;;;;0.80;0.80;;;24.30;49.00;;;;;;5046561;28;20548;-82
2021/08/03 00:52:06;;;;;;;1.80;1.00;;;24.30;48.40;;;;;;5063818;28;20486;-83
2021/08/03 00:54:36;;;;;;;1.13;1.00;;;24.30;48.40;;;;;;5066300;28;20466;-83
2021/08/03 00:57:05;;;;;;;1.20;0.93;;;24.30;48.40;;;;;;5066395;28;20480;-83
2021/08/03 00:59:32;;;;;;;1.10;1.00;;;24.20;48.30;;;;;;5066148;28;20481;-81
2021/08/03 01:02:00;;;;;;;1.10;1.00;;;24.20;48.30;;;;;;5066660;28;20440;-81
2021/08/03 01:04:28;;;;;;;1.20;1.20;;;24.20;48.30;;;;;;5066209;28;20506;-78
2021/08/03 01:07:01;;;;;;;1.07;1.07;;;24.20;48.40;;;;;;5066570;28;20473;-77
2021/08/03 01:09:31;;;;;;;0.90;0.90;;;24.20;48.40;;;;;;5066513;28;20401;-77
2021/08/03 01:12:04;;;;;;;0.80;0.80;;;24.20;48.40;;;;;;5066198;28;20479;-78
2021/08/03 01:14:34;;;;;;;1.20;1.10;;;24.10;48.30;;;;;;5066123;28;20477;-78
2021/08/03 01:17:05;;;;;;;1.00;1.00;;;24.10;48.30;;;;;;5066048;28;20408;-78
2021/08/03 01:19:41;;;;;;;1.47;1.20;;;24.10;48.40;;;;;;5066042;28;20440;-78
2021/08/03 01:22:14;;;;;;;1.17;0.90;;;24.10;48.40;;;;;;5060210;28;20443;-78
2021/08/03 01:25:06;;;;;;;1.23;1.13;;;24.10;48.40;;;;;;5066389;28;20416;-78
2021/08/03 01:27:57;;;;;;;1.23;1.13;;;24.10;48.40;;;;;;5066112;28;20451;-77
2021/08/03 01:30:25;;;;;;;1.03;1.03;;;24.00;48.40;;;;;;5066112;28;20499;-83
2021/08/03 01:32:53;;;;;;;1.20;1.20;;;24.00;48.50;;;;;;5064459;28;20452;-83
2021/08/03 01:35:22;;;;;;;1.20;1.10;;;24.00;48.40;;;;;;5060924;28;20438;-83
2021/08/03 01:37:50;;;;;;;1.53;1.00;;;24.00;48.40;;;;;;5060577;28;20520;-82
2021/08/03 01:40:18;;;;;;;1.27;1.17;;;23.90;48.40;;;;;;5060559;28;20469;-79
2021/08/03 01:42:46;;;;;;;1.00;1.00;;;23.90;48.40;;;;;;5061985;28;20477;-79
2021/08/03 01:45:15;;;;;;;2.50;1.33;;;23.90;48.60;;;;;;5069472;28;20509;-79
2021/08/03 01:47:43;;;;;;;0.87;0.87;;;23.90;48.50;;;;;;5064006;28;20552;-79
2021/08/03 01:50:12;;;;;;;1.43;0.93;;;23.90;48.50;;;;;;5064445;28;20490;-79
2021/08/03 01:52:40;;;;;;;0.90;0.90;;;23.90;48.60;;;;;;5060064;28;20494;-79
2021/08/03 01:55:09;;;;;;;1.27;1.20;;;23.80;48.50;;;;;;5065316;28;20450;-79
2021/08/03 01:57:37;;;;;;;1.63;0.80;;;23.80;48.60;;;;;;5069092;28;20540;-79
2021/08/03 02:00:06;;;;;;;1.27;1.00;;;23.80;48.60;;;;;;5064458;28;20440;-82
2021/08/03 02:02:36;;;;;;;1.40;1.30;;;23.80;48.60;;;;;;5064016;28;20553;-79
2021/08/03 02:05:05;;;;;;;1.10;1.10;;;23.80;48.50;;;;;;5064553;28;20468;-79
2021/08/03 02:07:33;;;;;;;1.30;1.20;;;23.80;48.50;;;;;;5056594;28;20662;-81
2021/08/03 02:10:01;;;;;;;1.00;0.90;;;23.70;48.50;;;;;;5044635;28;20492;-82
2021/08/03 02:12:28;;;;;;;1.27;0.90;;;23.70;48.50;;;;;;5044509;28;20476;-82
2021/08/03 02:14:57;;;;;;;1.30;1.20;;;23.70;48.50;;;;;;5044009;28;20428;-82
2021/08/03 02:17:26;;;;;;;1.10;1.10;;;23.70;48.60;;;;;;5043203;28;20435;-82
2021/08/03 02:19:55;;;;;;;1.43;1.33;;;23.70;48.50;;;;;;5044118;28;20446;-82
2021/08/03 02:22:23;;;;;;;6.10;1.37;;;23.70;48.60;;;;;;5044162;28;20423;-83
2021/08/03 02:24:51;;;;;;;1.07;1.07;;;23.70;48.60;;;;;;5050124;28;20515;-82
2021/08/03 02:27:19;;;;;;;1.00;1.00;;;23.60;48.50;;;;;;5063473;28;20470;-83
2021/08/03 02:29:47;;;;;;;1.03;0.93;;;23.60;48.60;;;;;;5063985;28;20499;-82
2021/08/03 02:32:16;;;;;;;1.10;1.00;;;23.60;48.50;;;;;;5064739;28;20473;-82
2021/08/03 02:34:48;;;;;;;1.20;0.97;;;23.50;48.50;;;;;;5065063;28;20504;-82
2021/08/03 02:37:20;;;;;;;1.40;1.20;;;23.50;48.50;;;;;;5065032;28;20444;-82
2021/08/03 02:39:48;;;;;;;1.10;1.10;;;23.50;48.60;;;;;;5064912;28;20473;-83
2021/08/03 02:42:15;;;;;;;2.40;1.20;;;23.50;48.60;;;;;;5064558;28;20488;-82
2021/08/03 02:44:44;;;;;;;1.10;1.00;;;23.50;48.50;;;;;;5064904;28;20436;-79
2021/08/03 02:47:20;;;;;;;1.23;1.23;;;23.50;48.60;;;;;;5064895;28;20485;-79
2021/08/03 02:49:49;;;;;;;2.33;1.30;;;23.50;48.60;;;;;;5065094;28;20429;-78
2021/08/03 02:52:19;;;;;;;1.37;1.20;;;23.40;48.60;;;;;;5064692;28;20514;-78
2021/08/03 02:54:50;;;;;;;0.90;0.90;;;23.40;48.60;;;;;;5064532;28;20525;-78
2021/08/03 02:57:18;;;;;;;1.00;1.00;;;23.40;48.60;;;;;;5062423;28;20413;-78
2021/08/03 02:59:48;;;;;;;1.10;1.10;;;23.40;48.60;;;;;;5064475;28;20473;-78
2021/08/03 03:02:16;;;;;;;1.10;1.00;;;23.40;48.60;;;;;;5064106;28;20480;-78
2021/08/03 03:04:49;;;;;;;2.50;1.33;;;23.40;48.60;;;;;;5064800;28;20441;-78
2021/08/03 03:07:19;;;;;;;1.20;1.10;;;23.40;48.70;;;;;;5064743;28;20461;-78
2021/08/03 03:09:47;;;;;;;1.07;0.90;;;23.30;48.60;;;;;;5064236;28;20430;-78
2021/08/03 03:12:16;;;;;;;1.53;1.00;;;23.30;48.60;;;;;;5064418;28;20536;-78
2021/08/03 03:14:44;;;;;;;1.37;1.27;;;23.30;48.60;;;;;;5064322;28;20537;-78
2021/08/03 03:17:12;;;;;;;1.00;0.93;;;23.30;48.60;;;;;;5064666;28;20445;-78
2021/08/03 03:19:40;;;;;;;1.23;1.13;;;23.30;48.60;;;;;;5064332;28;20461;-82
2021/08/03 03:22:08;;;;;;;1.20;1.10;;;23.30;48.70;;;;;;5064492;28;20526;-82
2021/08/03 03:24:37;;;;;;;1.10;1.10;;;23.30;48.60;;;;;;5064396;28;20413;-78
2021/08/03 03:27:06;;;;;;;1.10;1.10;;;23.20;48.50;;;;;;5048407;28;20508;-79
2021/08/03 03:29:36;;;;;;;1.00;1.00;;;23.20;48.60;;;;;;5047087;28;20421;-82
2021/08/03 03:32:05;;;;;;;1.40;1.30;;;23.20;48.50;;;;;;5047645;28;20460;-82
2021/08/03 03:34:33;;;;;;;1.47;1.10;;;23.20;48.60;;;;;;5048553;28;20434;-82
2021/08/03 03:37:01;;;;;;;1.07;1.07;;;23.20;48.60;;;;;;5047766;28;20600;-79
2021/08/03 03:39:30;;;;;;;1.30;1.30;;;23.20;48.60;;;;;;5047987;28;20508;-79
2021/08/03 03:42:01;;;;;;;1.37;1.27;;;23.10;48.50;;;;;;5047670;28;20417;-78
2021/08/03 03:44:29;;;;;;;1.17;1.17;;;23.10;48.60;;;;;;5048199;28;20434;-78
2021/08/03 03:46:59;;;;;;;1.23;1.23;;;23.10;48.60;;;;;;5048444;28;20470;-79
2021/08/03 03:49:31;;;;;;;1.50;1.40;;;23.10;48.60;;;;;;5051670;28;20473;-81
2021/08/03 03:52:00;;;;;;;1.40;1.30;;;23.10;48.70;;;;;;5048074;28;20417;-82
2021/08/03 03:54:29;;;;;;;1.10;1.03;;;23.10;48.60;;;;;;5047665;28;20463;-79
2021/08/03 03:57:00;;;;;;;1.40;1.30;;;23.10;48.60;;;;;;5048320;28;20449;-79
2021/08/03 03:59:28;;;;;;;1.53;1.27;;;23.10;48.60;;;;;;5047514;28;20430;-79
2021/08/03 04:01:57;;;;;;;1.40;1.30;;;23.10;48.70;;;;;;5060574;28;20507;-78
2021/08/03 04:04:25;;;;;;;2.10;1.40;;;23.10;48.60;;;;;;5077820;28;20431;-82
2021/08/03 04:06:53;;;;;;;1.50;1.40;;;23.00;48.60;;;;;;5064810;28;20507;-82
2021/08/03 04:09:21;;;;;;;1.30;1.30;;;23.00;48.60;;;;;;5066466;28;20474;-79
2021/08/03 04:11:49;;;;;;;1.40;1.30;;;23.00;48.60;;;;;;5067154;28;20408;-79
2021/08/03 04:14:22;;;;;;;1.73;1.50;;;23.00;48.60;;;;;;5067263;28;20473;-79
2021/08/03 04:16:51;;;;;;;1.40;1.30;;;23.00;48.60;;;;;;5067023;28;20448;-79
2021/08/03 04:19:19;;;;;;;1.43;1.33;;;23.00;48.70;;;;;;5067601;28;20404;-79
2021/08/03 04:21:47;;;;;;;1.30;1.20;;;23.00;48.60;;;;;;5066997;28;20419;-79
2021/08/03 04:24:15;;;;;;;1.23;1.23;;;22.90;48.50;;;;;;5065550;28;20522;-79
2021/08/03 04:26:43;;;;;;;1.50;1.40;;;22.90;48.60;;;;;;5047582;28;20421;-82
2021/08/03 04:29:11;;;;;;;1.17;1.03;;;22.90;48.60;;;;;;5047861;28;20484;-82
2021/08/03 04:31:40;;;;;;;2.20;1.40;;;22.90;48.60;;;;;;5047579;28;20455;-82
2021/08/03 04:34:09;;;;;;;1.10;1.10;;;22.90;48.60;;;;;;5047498;28;20504;-82
2021/08/03 04:36:37;;;;;;;1.60;1.17;;;22.90;48.60;;;;;;5047854;28;20499;-82
2021/08/03 04:39:10;;;;;;;1.67;1.27;;;22.90;48.60;;;;;;5047505;28;20520;-82
2021/08/03 04:41:38;;;;;;;1.10;1.00;;;22.90;48.50;;;;;;5046510;28;20488;-82
2021/08/03 04:44:06;;;;;;;1.30;1.20;;;22.90;48.50;;;;;;5050038;28;20413;-81
2021/08/03 04:46:34;;;;;;;1.00;1.00;;;22.80;48.50;;;;;;5047407;28;20474;-82
2021/08/03 04:49:03;;;;;;;1.77;1.60;;;22.80;48.50;;;;;;5046932;28;20528;-78
2021/08/03 04:51:31;;;;;;;1.33;1.10;;;22.80;48.60;;;;;;5046982;28;20525;-81
2021/08/03 04:53:59;;;;;;;1.10;1.10;;;22.80;48.50;;;;;;5046805;28;20506;-78
2021/08/03 04:56:27;;;;;;;1.23;1.13;;;22.80;48.50;;;;;;5047412;28;20465;-78
2021/08/03 04:58:55;;;;;;;1.73;1.10;;;22.80;48.60;;;;;;5047213;28;20451;-78
2021/08/03 05:01:23;;;;;;;1.00;1.00;;;22.80;48.50;;;;;;5046722;28;20405;-82
2021/08/03 05:03:51;;;;;;;0.93;0.93;;;22.80;48.50;;;;;;5047086;28;20495;-82
2021/08/03 05:06:21;;;;;;;1.30;1.20;;;22.80;48.60;;;;;;5046494;28;20470;-79
2021/08/03 05:08:49;;;;;;;1.03;1.03;;;22.80;48.60;;;;;;5046878;28;20436;-79
2021/08/03 05:11:17;;;;;;;1.37;1.10;;;22.70;48.50;;;;;;5046590;28;20508;-79
2021/08/03 05:13:45;;;;;;;1.70;1.20;;;22.70;48.40;;;;;;5056363;28;20462;-79
2021/08/03 05:16:12;;;;;;;1.00;1.00;;;22.70;48.40;;;;;;5066043;28;20438;-79
2021/08/03 05:18:41;;;;;;;1.30;1.20;;;22.80;48.50;;;;;;5066681;28;20452;-79
2021/08/03 05:21:09;;;;;;;2.20;1.10;;;22.80;48.50;;;;;;5066735;28;20437;-79
2021/08/03 05:23:39;;;;;;;1.00;1.00;;;22.70;48.40;;;;;;5066907;28;20442;-82
2021/08/03 05:26:07;;;;;;;1.40;1.30;;;22.70;48.40;;;;;;5067182;28;20446;-82
2021/08/03 05:28:35;;;;;;;1.10;1.07;;;22.70;48.40;;;;;;5066303;28;20428;-82
2021/08/03 05:31:03;;;;;;;1.07;1.07;;;22.70;48.40;;;;;;5066493;28;20451;-78
2021/08/03 05:33:31;;;;;;;1.17;1.07;;;22.70;48.40;;;;;;5065860;28;20497;-82
2021/08/03 05:35:58;;;;;;;1.10;1.10;;;22.70;48.50;;;;;;5066396;28;20420;-82
2021/08/03 05:38:26;;;;;;;1.20;1.10;;;22.70;48.50;;;;;;5066466;28;20518;-82
2021/08/03 05:40:56;;;;;;;2.53;1.50;;;22.70;48.40;;;;;;5066465;28;20437;-82
2021/08/03 05:43:24;;;;;;;1.80;1.70;;;22.70;48.50;;;;;;5064590;28;20474;-82
2021/08/03 05:45:52;;;;;;;1.70;1.37;;;22.70;48.40;;;;;;5065487;28;20436;-82
2021/08/03 05:48:20;;;;;;;1.77;1.67;;;22.70;48.50;;;;;;5066358;28;20507;-82
2021/08/03 05:50:47;;;;;;;1.30;1.30;;;22.70;48.40;;;;;;5065849;28;20438;-78
2021/08/03 05:53:15;;;;;;;1.77;1.57;;;22.70;48.40;;;;;;5065623;28;20429;-78
2021/08/03 05:55:43;;;;;;;1.40;1.40;;;22.70;48.50;;;;;;5064746;28;20416;-78
2021/08/03 05:58:13;;;;;;;1.40;1.40;;;22.70;48.40;;;;;;5066798;28;20480;-78
2021/08/03 06:00:43;;;;;;;1.50;1.40;;;22.70;48.40;;;;;;5064221;28;20412;-78
2021/08/03 06:03:11;;;;;;;1.77;1.30;;;22.70;48.50;;;;;;5065034;28;20473;-78
2021/08/03 06:05:39;;;;;;;1.37;1.30;;;22.80;48.60;;;;;;5065459;28;20440;-78
2021/08/03 06:08:08;;;;;;;1.90;1.80;;;22.80;48.60;;;;;;5064763;28;20416;-78
2021/08/03 06:10:36;;;;;;;1.53;1.40;;;22.80;48.60;;;;;;5064836;28;20437;-78
2021/08/03 06:13:05;;;;;;;1.60;1.30;;;22.80;48.70;;;;;;5065230;28;20473;-78
2021/08/03 06:15:38;;;;;;;1.57;1.47;;;22.80;48.70;;;;;;5064915;28;20474;-79
2021/08/03 06:18:09;;;;;;;1.90;1.80;;;22.90;48.80;;;;;;5057937;28;20504;-78
2021/08/03 06:20:37;;;;;;;2.00;1.90;;;22.90;48.90;;;;;;5064854;28;20409;-78
2021/08/03 06:23:05;;;;;;;2.93;2.03;;;22.90;48.80;;;;;;5064895;28;20447;-79
2021/08/03 06:25:34;;;;;;;1.63;1.53;;;22.90;48.90;;;;;;5065121;28;20443;-78
2021/08/03 06:28:02;;;;;;;3.10;2.30;;;23.00;49.00;;;;;;5065253;28;20445;-77
2021/08/03 06:30:30;;;;;;;3.43;1.87;;;23.00;49.00;;;;;;5065068;28;20436;-79
2021/08/03 06:33:15;;;;;;;1.87;1.77;;;23.00;49.00;;;;;;5064877;28;20504;-80
2021/08/03 06:35:43;;;;;;;2.03;1.93;;;23.10;49.00;;;;;;5064766;28;20456;-78
2021/08/03 06:38:14;;;;;;;1.97;1.87;;;23.10;49.20;;;;;;5065486;28;20416;-79
2021/08/03 06:40:47;;;;;;;1.73;1.67;;;23.10;49.20;;;;;;5065434;28;20412;-78
2021/08/03 06:43:16;;;;;;;1.73;1.63;;;23.30;49.20;;;;;;5064862;28;20447;-78
2021/08/03 06:45:47;;;;;;;1.67;1.57;;;23.30;49.10;;;;;;5064873;28;20435;-78
2021/08/03 06:48:20;;;;;;;2.73;2.10;;;23.40;49.10;;;;;;5063063;28;20514;-78
2021/08/03 06:50:53;;;;;;;1.80;1.70;;;23.40;49.10;;;;;;5062751;28;20412;-78
2021/08/03 06:53:26;;;;;;;1.70;1.60;;;23.50;49.10;;;;;;5064658;28;20499;-78
2021/08/03 06:55:54;;;;;;;1.67;1.57;;;23.50;49.00;;;;;;5064375;28;20536;-78
2021/08/03 06:58:26;;;;;;;1.77;1.67;;;23.60;49.20;;;;;;5064424;28;20494;-78
2021/08/03 07:00:54;;;;;;;1.83;1.73;;;23.70;49.10;;;;;;5064643;28;20457;-78
2021/08/03 07:03:25;;;;;;;1.63;1.53;;;23.70;49.20;;;;;;5063738;28;20433;-78
2021/08/03 07:05:54;;;;;;;3.00;1.60;;;23.80;49.30;;;;;;5064858;28;20446;-78
2021/08/03 07:08:22;;;;;;;1.60;1.50;;;23.80;49.10;;;;;;5064700;28;20515;-78
2021/08/03 07:10:55;;;;;;;1.67;1.57;;;23.90;49.30;;;;;;5064310;28;20507;-78
2021/08/03 07:13:25;;;;;;;1.50;1.20;;;24.00;49.50;;;;;;5064250;28;20481;-78
2021/08/03 07:15:53;;;;;;;2.13;1.30;;;24.10;49.60;;;;;;5063940;28;20473;-78
2021/08/03 07:18:21;;;;;;;1.30;1.20;;;24.20;49.70;;;;;;5063845;28;20416;-78
2021/08/03 07:20:51;;;;;;;1.30;1.20;;;24.30;49.60;;;;;;5045801;28;20413;-78
2021/08/03 07:23:19;;;;;;;1.43;1.07;;;24.30;49.60;;;;;;5043893;28;20444;-78
2021/08/03 07:25:48;;;;;;;1.20;1.20;;;24.40;49.60;;;;;;5044390;28;20428;-78
2021/08/03 07:28:16;;;;;;;1.20;1.20;;;24.50;49.70;;;;;;5044163;28;20450;-78
2021/08/03 07:30:44;;;;;;;1.20;1.10;;;24.60;49.80;;;;;;5043638;28;20427;-78
2021/08/03 07:33:13;;;;;;;1.57;1.30;;;24.70;49.80;;;;;;5043908;28;20502;-78
2021/08/03 07:35:41;;;;;;;2.23;1.30;;;24.80;49.90;;;;;;5044243;28;20453;-78
2021/08/03 07:38:12;;;;;;;1.63;1.10;;;25.00;49.90;;;;;;5043997;28;20463;-78
2021/08/03 07:40:41;;;;;;;1.20;1.20;;;25.10;49.90;;;;;;5044181;28;20507;-78
2021/08/03 07:43:09;;;;;;;1.20;1.13;;;25.10;49.70;;;;;;5043547;28;20413;-78
2021/08/03 07:45:37;;;;;;;2.00;1.23;;;25.20;49.60;;;;;;5044238;28;20413;-78
2021/08/03 07:48:05;;;;;;;2.50;1.30;;;25.20;49.60;;;;;;5047365;28;20454;-78
2021/08/03 07:50:33;;;;;;;1.67;1.20;;;25.20;50.00;;;;;;5063971;28;20582;-78
2021/08/03 07:53:01;;;;;;;2.73;1.00;;;25.40;50.20;;;;;;5063579;28;20450;-78
2021/08/03 07:55:31;;;;;;;1.13;1.13;;;25.40;50.00;;;;;;5064386;28;20452;-79
2021/08/03 07:57:59;;;;;;;1.00;1.00;;;25.40;50.00;;;;;;5063866;28;20412;-79
2021/08/03 08:00:27;;;;;;;1.10;1.00;;;25.40;50.00;;;;;;5063861;28;20451;-79
2021/08/03 08:02:56;;;;;;;1.30;1.20;;;25.40;50.00;;;;;;5063693;28;20412;-79
2021/08/03 08:05:24;;;;;;;1.00;1.00;;;25.40;50.20;;;;;;5056050;28;20434;-79
2021/08/03 08:07:58;;;;;;;1.80;1.30;;;25.40;50.30;;;;;;5070108;28;20413;-79
2021/08/03 08:10:26;;;;;;;1.07;1.03;;;25.40;50.30;;;;;;5071077;28;20468;-79
2021/08/03 08:12:55;;;;;;;1.73;1.00;;;25.50;50.40;;;;;;5062263;28;20473;-78
2021/08/03 08:15:23;;;;;;;1.23;1.20;;;25.50;50.50;;;;;;5063768;28;20485;-78
2021/08/03 08:17:51;;;;;;;1.00;1.00;;;25.60;50.70;;;;;;5060598;28;20420;-78
2021/08/03 08:20:19;;;;;;;1.27;1.10;;;25.80;50.60;;;;;;5056832;28;20458;-80
2021/08/03 08:22:47;;;;;;;2.97;1.13;;;25.90;50.50;;;;;;5056503;28;20449;-80
2021/08/03 08:25:15;;;;;;;1.00;1.00;;;26.00;50.30;;;;;;5060258;28;20478;-78
2021/08/03 08:27:43;;;;;;;1.20;1.10;;;26.10;50.30;;;;;;5060724;28;20523;-81
2021/08/03 08:30:14;;;;;;;1.57;1.20;;;26.20;50.20;;;;;;5065040;28;20430;-80
2021/08/03 08:32:43;;;;;;;2.83;1.30;;;26.30;50.20;;;;;;5063459;28;20464;-78
2021/08/03 08:35:34;;;;;;;1.20;1.07;;;26.40;50.00;;;;;;5054291;28;20493;-78
2021/08/03 08:38:03;;;;;;;3.37;1.17;;;26.50;49.80;;;;;;5055801;28;20461;-80
2021/08/03 08:40:31;;;;;;;1.77;1.40;;;26.50;49.80;;;;;;5061107;28;20447;-77
2021/08/03 08:42:59;;;;;;;1.57;1.10;;;26.40;49.80;;;;;;5059308;28;20437;-80
2021/08/03 08:45:30;;;;;;;3.03;1.57;;;26.40;49.90;;;;;;5057369;28;20482;-78
2021/08/03 08:48:00;;;;;;;1.20;1.10;;;26.40;50.00;;;;;;5056890;28;20452;-78
2021/08/03 08:50:30;;;;;;;1.00;1.00;;;26.30;50.00;;;;;;5055123;28;20420;-78
2021/08/03 08:52:58;;;;;;;2.33;1.07;;;26.40;50.00;;;;;;5054824;28;20486;-77
2021/08/03 08:55:26;;;;;;;0.97;0.83;;;26.40;50.10;;;;;;5065687;28;20513;-81
2021/08/03 08:57:54;;;;;;;0.90;0.90;;;26.40;50.10;;;;;;5064130;28;20491;-78
2021/08/03 09:00:22;;;;;;;2.40;1.20;;;26.50;50.40;;;;;;5065138;28;20472;-77
2021/08/03 09:02:53;;;;;;;2.03;1.13;;;26.60;50.20;;;;;;5060889;28;20425;-78
2021/08/03 09:05:31;;;;;;;1.07;1.07;;;26.80;50.00;;;;;;5061281;28;20415;-79
2021/08/03 09:07:59;;;;;;;2.13;1.10;;;26.90;49.80;;;;;;5062555;28;20469;-78
2021/08/03 09:10:32;;;;;;;3.37;1.07;;;27.00;49.40;;;;;;5062880;28;20458;-78
2021/08/03 09:13:02;;;;;;;1.73;1.27;;;27.20;49.30;;;;;;5060313;28;20440;-79
2021/08/03 09:15:32;;;;;;;1.10;0.80;;;27.30;49.10;;;;;;5058213;28;20508;-80
2021/08/03 09:18:16;;;;;;;1.10;1.00;;;27.50;48.90;;;;;;5058266;28;20459;-78
2021/08/03 09:20:46;;;;;;;3.27;1.20;;;27.60;48.60;;;;;;5056229;28;20456;-78
2021/08/03 09:23:14;;;;;;;1.50;1.00;;;27.80;48.60;;;;;;5057997;28;20481;-78
2021/08/03 09:25:52;;;;;;;1.37;1.07;;;27.90;48.30;;;;;;5056935;28;20451;-78
2021/08/03 09:28:21;;;;;;;1.00;0.90;;;28.00;48.00;;;;;;5056003;28;20469;-77
2021/08/03 09:30:49;;;;;;;1.10;1.00;;;28.10;47.70;;;;;;5059322;28;20458;-79
2021/08/03 09:33:25;;;;;;;0.90;0.90;;;28.10;47.50;;;;;;5060930;28;20505;-78
2021/08/03 09:35:54;;;;;;;2.10;1.13;;;28.00;47.50;;;;;;5059491;28;20520;-78
2021/08/03 09:38:22;;;;;;;1.17;1.07;;;27.90;47.60;;;;;;5058864;28;20454;-80
2021/08/03 09:40:52;;;;;;;1.30;1.13;;;27.90;47.80;;;;;;5061025;28;20469;-79
2021/08/03 09:43:30;;;;;;;2.70;0.90;;;28.00;48.20;;;;;;5061822;28;20446;-79
2021/08/03 09:46:00;;;;;;;1.57;1.00;;;28.10;47.80;;;;;;5060459;28;20503;-80
2021/08/03 09:48:30;;;;;;;1.17;1.07;;;28.10;47.80;;;;;;5062935;28;20446;-80
2021/08/03 09:51:01;;;;;;;1.93;1.00;;;28.00;47.60;;;;;;5069052;28;20457;-80
2021/08/03 09:53:39;;;;;;;1.10;1.00;;;28.00;47.50;;;;;;5054545;28;20451;-79
2021/08/03 09:56:08;;;;;;;1.00;0.90;;;28.00;47.60;;;;;;5060566;28;20481;-79
2021/08/03 09:58:52;;;;;;;1.00;1.00;;;27.90;47.70;;;;;;5054404;28;20451;-79
2021/08/03 10:01:39;;;;;;;1.10;1.00;;;28.00;47.80;;;;;;5055219;28;20469;-79
2021/08/03 10:04:10;;;;;;;1.23;0.80;;;27.90;47.80;;;;;;5062370;28;20445;-81
2021/08/03 10:06:38;;;;;;;1.77;1.07;;;27.90;47.70;;;;;;5053056;28;20473;-78
2021/08/03 10:09:09;;;;;;;1.40;1.00;;;27.90;47.60;;;;;;5059674;28;20478;-80
2021/08/03 10:11:41;;;;;;;0.83;0.83;;;27.90;47.70;;;;;;5061145;28;20528;-79
2021/08/03 10:14:25;;;;;;;1.70;0.80;;;27.90;47.60;;;;;;5063057;28;20465;-79
2021/08/03 10:16:54;;;;;;;1.00;0.90;;;27.90;47.70;;;;;;5062938;28;20560;-79
2021/08/03 10:19:27;;;;;;;2.13;1.30;;;28.20;48.00;;;;;;5061744;28;20442;-79
2021/08/03 10:22:16;;;;;;;0.97;0.90;;;28.50;47.40;;;;;;5058614;28;20472;-79
2021/08/03 10:24:52;;;;;;;0.90;0.90;;;28.70;46.80;;;;;;5062269;28;20456;-78
2021/08/03 10:27:20;;;;;;;1.10;1.10;;;28.90;46.40;;;;;;5061105;28;20452;-81
2021/08/03 10:29:49;;;;;;;1.20;1.10;;;29.10;45.80;;;;;;5062428;28;20526;-81
2021/08/03 10:32:36;;;;;;;1.00;1.00;;;29.30;45.40;;;;;;5059124;28;20450;-81
2021/08/03 10:35:07;;;;;;;1.00;0.90;;;29.30;44.70;;;;;;5061537;28;20438;-82
2021/08/03 10:38:07;;;;;;;1.20;1.10;;;29.50;44.70;;;;;;5056492;28;20536;-81
2021/08/03 10:41:17;;;;;;;0.97;0.87;;;29.50;44.10;;;;;;5063975;28;20433;-80
2021/08/03 10:43:49;;;;;;;1.07;0.90;;;29.30;44.00;;;;;;5060956;28;20485;-79
2021/08/03 10:46:47;;;;;;;0.80;0.80;;;29.20;44.40;;;;;;5058110;28;20471;-79
2021/08/03 10:49:54;;;;;;;1.10;0.90;;;29.20;44.50;;;;;;5049248;28;20510;-81
2021/08/03 10:52:55;;;;;;;1.00;1.00;;;29.00;44.70;;;;;;5059725;28;20469;-79
2021/08/03 10:55:37;;;;;;;1.23;1.00;;;29.00;44.70;;;;;;4991492;28;20477;-79
2021/08/03 10:58:20;;;;;;;1.20;1.00;;;28.90;44.80;;;;;;5051607;28;20546;-78
2021/08/03 11:00:49;;;;;;;1.73;1.00;;;28.90;44.80;;;;;;5058318;28;20536;-79
2021/08/03 11:03:45;;;;;;;0.90;0.90;;;28.80;44.80;;;;;;5058190;28;20520;-78
2021/08/03 11:06:37;;;;;;;1.10;1.00;;;28.80;44.90;;;;;;5053851;28;20462;-79
2021/08/03 11:09:40;;;;;;;1.70;0.80;;;28.70;44.90;;;;;;5057016;28;20523;-79
2021/08/03 11:12:51;;;;;;;1.57;0.93;;;28.70;44.90;;;;;;4988055;28;20477;-79
2021/08/03 11:15:40;;;;;;;1.63;0.90;;;28.70;45.10;;;;;;4989914;28;20656;-79
2021/08/03 11:18:13;;;;;;;1.00;0.93;;;28.70;45.20;;;;;;5045306;28;20504;-79
2021/08/03 11:21:00;;;;;;;1.93;1.10;;;28.70;45.00;;;;;;5050963;28;20516;-79
2021/08/03 11:23:59;;;;;;;3.23;0.90;;;28.70;45.00;;;;;;5055236;28;20442;-78
2021/08/03 11:26:30;;;;;;;4.60;1.17;;;28.90;44.60;;;;;;5056208;28;20452;-78
2021/08/03 11:29:02;;;;;;;2.27;1.07;;;29.00;44.60;;;;;;5060398;28;20473;-79
2021/08/03 11:31:51;;;;;;;1.57;1.00;;;29.20;44.70;;;;;;5050004;28;20459;-79
2021/08/03 11:34:21;;;;;;;1.20;1.10;;;29.40;44.10;;;;;;5060100;28;20450;-79
2021/08/03 11:36:54;;;;;;;2.43;0.90;;;29.60;43.70;;;;;;5057803;28;20572;-78
2021/08/03 11:39:22;;;;;;;0.77;0.77;;;29.80;43.60;;;;;;5053177;28;20484;-78
2021/08/03 11:41:52;;;;;;;1.73;0.90;;;29.80;43.40;;;;;;5061268;28;20541;-79
2021/08/03 11:44:20;;;;;;;0.90;0.90;;;29.80;43.40;;;;;;5062160;28;20449;-79
2021/08/03 11:46:54;;;;;;;1.83;0.90;;;29.70;43.40;;;;;;5060327;28;20553;-79
2021/08/03 11:49:27;;;;;;;1.40;1.30;;;29.60;43.40;;;;;;5062748;28;20477;-79
2021/08/03 11:52:13;;;;;;;0.87;0.87;;;29.60;43.60;;;;;;5058290;28;20480;-79
2021/08/03 11:54:42;;;;;;;0.87;0.80;;;29.50;43.70;;;;;;5063722;28;20544;-79
2021/08/03 11:57:31;;;;;;;1.00;0.90;;;29.50;43.80;;;;;;5067747;28;20532;-79
2021/08/03 12:00:05;;;;;;;1.10;1.00;;;29.50;43.80;;;;;;5064284;28;20449;-79
2021/08/03 12:02:33;;;;;;;0.93;0.73;;;29.40;43.80;;;;;;5061503;28;20491;-79
2021/08/03 12:05:12;;;;;;;1.00;0.90;;;29.40;43.90;;;;;;5059823;28;20430;-78
2021/08/03 12:07:46;;;;;;;0.80;0.80;;;29.40;44.00;;;;;;5058421;28;20445;-79
2021/08/03 12:10:14;;;;;;;0.80;0.80;;;29.30;44.40;;;;;;5061337;28;20464;-79
2021/08/03 12:12:45;;;;;;;0.77;0.77;;;29.30;44.60;;;;;;5063940;28;20504;-79
2021/08/03 12:15:14;;;;;;;1.10;1.00;;;29.30;44.00;;;;;;5059814;28;20450;-79
2021/08/03 12:17:42;;;;;;;0.80;0.80;;;29.30;44.00;;;;;;5061860;28;20473;-78
2021/08/03 12:20:25;;;;;;;0.80;0.80;;;29.50;44.20;;;;;;5064637;28;20442;-78
2021/08/03 12:22:53;;;;;;;0.73;0.73;;;29.70;43.30;;;;;;5058875;28;20498;-78
2021/08/03 12:25:21;;;;;;;0.80;0.80;;;29.80;43.00;;;;;;5057696;28;20526;-78
2021/08/03 12:27:50;;;;;;;1.57;1.13;;;30.10;43.00;;;;;;5060206;28;20497;-78
2021/08/03 12:30:37;;;;;;;0.90;0.80;;;30.40;43.00;;;;;;5061893;28;20522;-78
2021/08/03 12:33:05;;;;;;;1.20;0.90;;;30.60;42.50;;;;;;5057524;28;20508;-78
2021/08/03 12:35:38;;;;;;;0.90;0.90;;;30.80;42.50;;;;;;5064086;28;20484;-78
2021/08/03 12:38:14;;;;;;;1.53;0.80;;;30.90;42.00;;;;;;5061576;28;20514;-78
2021/08/03 12:40:42;;;;;;;0.80;0.70;;;31.00;41.90;;;;;;5065777;28;20512;-78
2021/08/03 12:43:11;;;;;;;0.90;0.70;;;31.10;42.50;;;;;;5055524;28;20453;-78
2021/08/03 12:45:42;;;;;;;0.77;0.77;;;31.30;41.80;;;;;;5062873;28;20453;-78
2021/08/03 12:48:11;;;;;;;0.70;0.70;;;31.30;41.40;;;;;;5062254;28;20507;-78
2021/08/03 12:50:53;;;;;;;0.80;0.80;;;31.40;41.50;;;;;;5061538;28;20471;-79
2021/08/03 12:53:25;;;;;;;0.90;0.90;;;31.40;41.30;;;;;;5062256;28;20532;-78
2021/08/03 12:55:54;;;;;;;0.80;0.80;;;31.40;40.80;;;;;;5061307;28;20430;-78
2021/08/03 12:58:37;;;;;;;0.83;0.80;;;31.50;40.50;;;;;;5057574;28;20497;-78
2021/08/03 13:01:12;;;;;;;1.23;0.80;;;31.60;40.30;;;;;;5056124;28;20526;-79
2021/08/03 13:03:40;;;;;;;0.63;0.63;;;31.70;40.00;;;;;;5060549;28;20478;-79
2021/08/03 13:06:08;;;;;;;0.67;0.67;;;31.90;40.00;;;;;;5050018;28;20507;-79
2021/08/03 13:08:36;;;;;;;0.90;0.90;;;32.00;39.80;;;;;;5055807;28;20516;-79